createdAt,value
2023-03-19T00:01:07.716Z,50.58
2023-03-19T00:03:01.411Z,50.64
2023-03-19T00:04:25.596Z,50.56
2023-03-19T00:05:50.058Z,50.53
2023-03-19T00:07:25.529Z,50.67
2023-03-19T00:08:57.673Z,50.82
2023-03-19T00:10:19.311Z,50.78
2023-03-19T00:11:43.627Z,50.82
2023-03-19T00:13:24.520Z,50.87
2023-03-19T00:14:53.267Z,51.11
2023-03-19T00:16:27.192Z,50.95
2023-03-19T00:18:07.467Z,51.22
2023-03-19T00:19:46.736Z,51.44
2023-03-19T00:21:08.080Z,51.51
2023-03-19T00:22:41.918Z,51.36
2023-03-19T00:24:30.622Z,51.54
2023-03-19T00:25:55.000Z,51.85
2023-03-19T00:27:35.773Z,51.68
2023-03-19T00:29:18.810Z,51.72
2023-03-19T00:30:54.261Z,51.96
2023-03-19T00:32:48.869Z,51.80
2023-03-19T00:34:22.302Z,51.89
2023-03-19T00:35:44.078Z,52.03
2023-03-19T00:37:17.235Z,52.10
2023-03-19T00:38:58.253Z,52.17
2023-03-19T00:40:34.565Z,52.03
2023-03-19T00:42:19.372Z,52.09
2023-03-19T00:44:12.831Z,52.12
2023-03-19T00:45:58.171Z,52.18
2023-03-19T00:47:34.283Z,52.24
2023-03-19T00:49:07.755Z,52.40
2023-03-19T00:50:50.801Z,52.35
2023-03-19T00:52:22.386Z,52.57
2023-03-19T00:53:48.812Z,52.58
2023-03-19T00:55:29.160Z,52.57
2023-03-19T00:57:02.617Z,52.59
2023-03-19T00:58:38.632Z,52.54
2023-03-19T01:00:05.046Z,52.56
2023-03-19T01:01:38.745Z,52.69
2023-03-19T01:03:11.752Z,52.77
2023-03-19T01:04:59.930Z,52.83
2023-03-19T01:06:36.676Z,53.16
2023-03-19T01:08:17.395Z,53.09
2023-03-19T01:10:11.797Z,53.29
2023-03-19T01:12:05.605Z,53.38
2023-03-19T01:13:39.729Z,53.31
2023-03-19T01:15:24.354Z,53.53
2023-03-19T01:17:05.041Z,53.79
2023-03-19T01:18:40.258Z,53.85
2023-03-19T01:20:25.767Z,53.88
2023-03-19T01:22:06.349Z,53.85
2023-03-19T01:23:41.325Z,53.85
2023-03-19T01:25:26.115Z,53.62
2023-03-19T01:27:19.924Z,53.59
2023-03-19T01:29:00.520Z,53.54
2023-03-19T01:30:45.803Z,53.68
2023-03-19T01:32:41.710Z,53.62
2023-03-19T01:34:41.234Z,53.53
2023-03-19T01:36:18.365Z,53.53
2023-03-19T01:38:17.901Z,53.71
2023-03-19T01:40:04.820Z,53.57
2023-03-19T01:41:39.120Z,53.59
2023-03-19T01:43:26.941Z,53.61
2023-03-19T01:45:15.563Z,53.32
2023-03-19T01:47:14.772Z,53.35
2023-03-19T01:49:11.073Z,53.51
2023-03-19T01:50:56.697Z,53.43
2023-03-19T01:53:02.802Z,53.58
2023-03-19T01:55:39.790Z,53.58
2023-03-19T01:57:07.703Z,53.39
2023-03-19T01:58:48.554Z,53.56
2023-03-19T02:00:23.547Z,53.56
2023-03-19T02:02:02.134Z,53.68
2023-03-19T02:03:35.279Z,53.64
2023-03-19T02:05:26.551Z,53.71
2023-03-19T02:07:13.362Z,53.81
2023-03-19T02:09:01.872Z,53.95
2023-03-19T02:10:47.409Z,53.88
2023-03-19T02:12:32.053Z,54.12
2023-03-19T02:14:16.725Z,54.11
2023-03-19T02:16:02.664Z,54.19
2023-03-19T02:17:36.657Z,53.92
2023-03-19T02:19:05.932Z,53.98
2023-03-19T02:20:55.372Z,54.26
2023-03-19T02:24:40.980Z,54.12
2023-03-19T02:26:21.336Z,54.26
2023-03-19T02:28:09.330Z,54.34
2023-03-19T02:29:43.315Z,54.34
2023-03-19T02:31:28.505Z,54.23
2023-03-19T02:33:19.445Z,54.19
2023-03-19T02:34:52.800Z,54.21
2023-03-19T02:36:37.931Z,54.33
2023-03-19T02:38:22.569Z,54.42
2023-03-19T02:40:16.605Z,54.47
2023-03-19T02:42:02.203Z,54.45
2023-03-19T02:43:57.768Z,54.60
2023-03-19T02:45:23.904Z,54.66
2023-03-19T02:47:00.150Z,54.60
2023-03-19T02:48:49.805Z,54.64
2023-03-19T02:50:30.770Z,54.94
2023-03-19T02:52:04.288Z,55.26
2023-03-19T02:53:40.052Z,55.05
2023-03-19T02:55:24.989Z,55.05
2023-03-19T02:57:12.504Z,55.10
2023-03-19T02:59:06.005Z,55.24
2023-03-19T03:00:47.740Z,55.28
2023-03-19T03:02:16.407Z,55.41
2023-03-19T03:04:01.934Z,55.59
2023-03-19T03:05:33.878Z,55.42
2023-03-19T03:06:55.613Z,55.28
2023-03-19T03:08:28.810Z,55.33
2023-03-19T03:10:14.533Z,55.43
2023-03-19T03:11:55.030Z,55.38
2023-03-19T03:13:48.297Z,55.32
2023-03-19T03:15:21.759Z,55.57
2023-03-19T03:17:06.885Z,55.40
2023-03-19T03:18:51.259Z,55.26
2023-03-19T03:20:21.491Z,55.58
2023-03-19T03:21:57.547Z,55.53
2023-03-19T03:23:22.064Z,55.71
2023-03-19T03:25:11.246Z,55.74
2023-03-19T03:26:54.624Z,55.58
2023-03-19T03:28:49.890Z,55.67
2023-03-19T03:30:11.544Z,55.68
2023-03-19T03:31:51.273Z,56.10
2023-03-19T03:33:20.342Z,55.92
2023-03-19T03:35:01.079Z,56.06
2023-03-19T03:36:50.886Z,56.16
2023-03-19T03:38:40.134Z,55.99
2023-03-19T03:40:25.971Z,56.33
2023-03-19T03:41:52.251Z,56.38
2023-03-19T03:43:36.265Z,56.49
2023-03-19T03:45:16.183Z,56.30
2023-03-19T03:46:51.912Z,56.45
2023-03-19T03:48:25.347Z,56.58
2023-03-19T03:50:10.742Z,56.49
2023-03-19T03:51:52.820Z,56.61
2023-03-19T03:53:38.033Z,56.63
2023-03-19T03:55:14.139Z,56.54
2023-03-19T03:57:02.750Z,56.71
2023-03-19T03:58:39.469Z,56.46
2023-03-19T04:00:11.155Z,56.29
2023-03-19T04:01:38.335Z,56.59
2023-03-19T04:03:14.398Z,56.42
2023-03-19T04:04:48.903Z,56.26
2023-03-19T04:06:22.617Z,56.31
2023-03-19T04:08:13.520Z,56.33
2023-03-19T04:10:03.141Z,56.31
2023-03-19T04:11:51.272Z,56.28
2023-03-19T04:13:40.222Z,56.68
2023-03-19T04:15:15.944Z,56.53
2023-03-19T04:16:40.377Z,56.52
2023-03-19T04:18:15.774Z,56.59
2023-03-19T04:20:03.285Z,56.26
2023-03-19T04:21:36.506Z,56.34
2023-03-19T04:23:21.533Z,56.42
2023-03-19T04:24:55.240Z,56.58
2023-03-19T04:26:40.393Z,56.59
2023-03-19T04:28:14.027Z,56.80
2023-03-19T04:29:59.576Z,56.66
2023-03-19T04:31:35.672Z,56.63
2023-03-19T04:33:11.306Z,56.62
2023-03-19T04:34:53.390Z,56.59
2023-03-19T04:36:42.013Z,56.88
2023-03-19T04:38:26.769Z,56.76
2023-03-19T04:40:01.084Z,56.55
2023-03-19T04:41:47.144Z,56.69
2023-03-19T04:43:41.446Z,56.73
2023-03-19T04:45:16.605Z,56.58
2023-03-19T04:47:10.601Z,56.75
2023-03-19T04:49:13.812Z,56.79
2023-03-19T04:50:59.491Z,56.81
2023-03-19T04:52:45.079Z,56.99
2023-03-19T04:54:35.467Z,56.82
2023-03-19T04:56:16.095Z,57.01
2023-03-19T04:58:09.888Z,56.74
2023-03-19T04:59:55.442Z,56.91
2023-03-19T05:01:31.131Z,57.02
2023-03-19T05:03:14.184Z,57.00
2023-03-19T05:05:00.669Z,56.93
2023-03-19T05:06:36.913Z,56.95
2023-03-19T05:08:10.006Z,56.97
2023-03-19T05:10:03.702Z,56.68
2023-03-19T05:11:39.097Z,56.85
2023-03-19T05:13:07.928Z,56.46
2023-03-19T05:14:55.775Z,56.53
2023-03-19T05:16:45.807Z,56.47
2023-03-19T05:18:31.784Z,56.23
2023-03-19T05:20:17.083Z,56.20
2023-03-19T05:22:07.459Z,56.19
2023-03-19T05:24:01.005Z,56.24
2023-03-19T05:25:44.301Z,56.17
2023-03-19T05:27:18.242Z,56.13
2023-03-19T05:29:03.566Z,55.96
2023-03-19T05:30:55.577Z,55.96
2023-03-19T05:32:33.252Z,55.88
2023-03-19T05:34:19.488Z,55.74
2023-03-19T05:36:12.941Z,56.02
2023-03-19T05:38:01.434Z,55.97
2023-03-19T05:39:23.925Z,55.56
2023-03-19T05:40:57.830Z,55.61
2023-03-19T05:42:39.108Z,55.42
2023-03-19T05:44:20.979Z,55.56
2023-03-19T05:46:07.152Z,55.51
2023-03-19T05:47:51.593Z,55.52
2023-03-19T05:49:28.377Z,55.39
2023-03-19T05:51:02.262Z,55.31
2023-03-19T05:52:43.643Z,55.27
2023-03-19T05:54:24.435Z,55.42
2023-03-19T05:56:19.446Z,55.44
2023-03-19T05:58:13.483Z,55.24
2023-03-19T06:00:01.825Z,55.38
2023-03-19T06:01:41.009Z,55.23
2023-03-19T06:03:16.372Z,55.39
2023-03-19T06:04:57.448Z,55.28
2023-03-19T06:06:35.499Z,55.25
2023-03-19T06:08:16.187Z,55.56
2023-03-19T06:10:02.080Z,55.65
2023-03-19T06:11:56.199Z,55.54
2023-03-19T06:13:51.214Z,55.62
2023-03-19T06:15:28.782Z,55.26
2023-03-19T06:17:23.021Z,55.32
2023-03-19T06:19:07.910Z,55.30
2023-03-19T06:20:35.564Z,55.25
2023-03-19T06:22:11.338Z,55.15
2023-03-19T06:23:35.806Z,55.13
2023-03-19T06:25:11.845Z,54.94
2023-03-19T06:26:37.315Z,54.93
2023-03-19T06:28:26.308Z,55.06
2023-03-19T06:30:10.485Z,55.11
2023-03-19T06:31:44.286Z,54.73
2023-03-19T06:33:43.411Z,54.71
2023-03-19T06:35:18.151Z,54.49
2023-03-19T06:37:00.373Z,54.33
2023-03-19T06:38:29.574Z,54.37
2023-03-19T06:40:15.026Z,54.37
2023-03-19T06:42:09.901Z,54.45
2023-03-19T06:43:51.520Z,54.33
2023-03-19T06:45:25.929Z,54.20
2023-03-19T06:46:59.494Z,53.77
2023-03-19T06:48:26.361Z,53.89
2023-03-19T06:50:03.396Z,53.93
2023-03-19T06:51:51.517Z,53.45
2023-03-19T06:53:37.128Z,53.17
2023-03-19T06:55:17.776Z,53.59
2023-03-19T06:56:59.371Z,52.89
2023-03-19T06:58:35.818Z,53.02
2023-03-19T07:00:11.666Z,53.22
2023-03-19T07:01:53.436Z,52.31
2023-03-19T07:03:47.345Z,52.46
2023-03-19T07:05:31.914Z,52.52
2023-03-19T07:07:06.031Z,52.45
2023-03-19T07:08:51.298Z,52.61
2023-03-19T07:10:32.301Z,52.26
2023-03-19T07:12:08.782Z,51.81
2023-03-19T07:13:44.958Z,51.84
2023-03-19T07:15:30.497Z,51.70
2023-03-19T07:17:16.069Z,51.57
2023-03-19T07:18:51.967Z,50.96
2023-03-19T07:20:37.305Z,50.68
2023-03-19T07:22:19.857Z,49.92
2023-03-19T07:24:03.882Z,50.35
2023-03-19T07:25:49.608Z,50.33
2023-03-19T07:27:20.929Z,49.85
2023-03-19T07:28:57.655Z,49.90
2023-03-19T07:30:42.181Z,49.97
2023-03-19T07:32:23.790Z,49.90
2023-03-19T07:34:09.382Z,49.82
2023-03-19T07:35:46.011Z,49.49
2023-03-19T07:37:21.298Z,49.77
2023-03-19T07:39:07.636Z,49.96
2023-03-19T07:41:02.264Z,49.88
2023-03-19T07:42:38.459Z,49.86
2023-03-19T07:44:03.237Z,49.47
2023-03-19T07:45:36.960Z,49.19
2023-03-19T07:47:27.971Z,49.00
2023-03-19T07:49:09.729Z,48.38
2023-03-19T07:50:50.871Z,47.97
2023-03-19T07:52:26.669Z,48.18
2023-03-19T07:54:01.051Z,47.73
2023-03-19T07:55:42.518Z,47.97
2023-03-19T07:57:15.726Z,47.86
2023-03-19T07:58:48.177Z,47.50
2023-03-19T08:00:37.412Z,46.91
2023-03-19T08:02:13.300Z,46.82
2023-03-19T08:03:49.015Z,46.57
2023-03-19T08:05:34.216Z,45.97
2023-03-19T08:07:19.779Z,46.26
2023-03-19T08:09:14.846Z,45.69
2023-03-19T08:10:56.259Z,46.23
2023-03-19T08:12:41.780Z,45.62
2023-03-19T08:14:23.391Z,45.87
2023-03-19T08:16:08.113Z,45.78
2023-03-19T08:17:53.561Z,45.57
2023-03-19T08:19:41.176Z,45.63
2023-03-19T08:21:14.900Z,45.43
2023-03-19T08:23:00.400Z,44.61
2023-03-19T08:24:41.363Z,45.15
2023-03-19T08:26:05.583Z,44.79
2023-03-19T08:27:43.239Z,45.17
2023-03-19T08:29:18.935Z,45.15
2023-03-19T08:31:04.782Z,44.88
2023-03-19T08:32:50.486Z,44.21
2023-03-19T08:34:14.642Z,44.33
2023-03-19T08:35:50.631Z,44.38
2023-03-19T08:37:23.541Z,44.27
2023-03-19T08:39:11.945Z,44.65
2023-03-19T08:40:57.537Z,44.04
2023-03-19T08:42:45.032Z,44.13
2023-03-19T08:44:30.459Z,43.92
2023-03-19T08:46:15.736Z,43.04
2023-03-19T08:47:57.647Z,43.02
2023-03-19T08:49:32.921Z,43.29
2023-03-19T08:51:08.810Z,42.37
2023-03-19T08:52:55.231Z,42.66
2023-03-19T08:54:44.165Z,42.24
2023-03-19T08:56:17.276Z,42.51
2023-03-19T08:58:10.600Z,42.50
2023-03-19T08:59:35.095Z,42.39
2023-03-19T09:01:10.586Z,41.97
2023-03-19T09:02:52.082Z,41.31
2023-03-19T09:04:37.529Z,40.99
2023-03-19T09:06:22.500Z,41.21
2023-03-19T09:08:14.532Z,40.95
2023-03-19T09:09:51.806Z,41.19
2023-03-19T09:11:27.840Z,40.56
2023-03-19T09:13:07.988Z,40.80
2023-03-19T09:14:53.879Z,40.62
2023-03-19T09:16:47.287Z,40.48
2023-03-19T09:18:13.702Z,40.48
2023-03-19T09:19:45.372Z,40.10
2023-03-19T09:21:18.683Z,40.02
2023-03-19T09:23:13.912Z,39.93
2023-03-19T09:24:47.361Z,40.19
2023-03-19T09:26:20.798Z,39.64
2023-03-19T09:28:05.896Z,39.56
2023-03-19T09:29:51.438Z,39.71
2023-03-19T09:31:29.536Z,39.91
2023-03-19T09:33:11.242Z,39.67
2023-03-19T09:34:47.174Z,39.34
2023-03-19T09:36:11.231Z,39.50
2023-03-19T09:37:57.020Z,38.86
2023-03-19T09:39:51.450Z,38.63
2023-03-19T09:41:27.589Z,38.61
2023-03-19T09:43:16.996Z,38.77
2023-03-19T09:44:46.203Z,38.90
2023-03-19T09:46:22.946Z,38.87
2023-03-19T09:48:07.829Z,38.80
2023-03-19T09:49:53.118Z,38.68
2023-03-19T09:51:39.932Z,38.64
2023-03-19T09:53:15.867Z,38.77
2023-03-19T09:55:09.917Z,38.66
2023-03-19T09:56:45.612Z,38.71
2023-03-19T09:58:18.945Z,39.04
2023-03-19T10:00:08.132Z,38.29
2023-03-19T10:01:53.449Z,38.62
2023-03-19T10:03:38.607Z,38.31
2023-03-19T10:05:23.250Z,37.75
2023-03-19T10:07:08.733Z,37.39
2023-03-19T10:08:54.241Z,37.30
2023-03-19T10:10:47.600Z,37.12
2023-03-19T10:12:32.794Z,36.69
2023-03-19T10:14:18.055Z,36.77
2023-03-19T10:15:50.366Z,37.22
2023-03-19T10:17:35.806Z,37.19
2023-03-19T10:19:17.893Z,37.24
2023-03-19T10:21:05.866Z,37.36
2023-03-19T10:22:51.348Z,37.38
2023-03-19T10:24:24.237Z,37.01
2023-03-19T10:25:57.555Z,36.52
2023-03-19T10:27:18.994Z,36.49
2023-03-19T10:28:54.813Z,36.87
2023-03-19T10:30:39.321Z,36.83
2023-03-19T10:32:19.509Z,36.75
2023-03-19T10:34:04.990Z,36.44
2023-03-19T10:35:50.488Z,35.47
2023-03-19T10:37:35.225Z,34.96
2023-03-19T10:39:20.217Z,35.02
2023-03-19T10:41:13.784Z,34.45
2023-03-19T10:42:38.116Z,34.79
2023-03-19T10:44:12.947Z,34.63
2023-03-19T10:45:57.443Z,35.59
2023-03-19T10:47:30.713Z,35.53
2023-03-19T10:49:07.269Z,35.26
2023-03-19T10:50:53.613Z,35.05
2023-03-19T10:52:29.019Z,34.95
2023-03-19T10:54:02.201Z,34.82
2023-03-19T10:55:31.318Z,34.88
2023-03-19T10:57:16.611Z,34.55
2023-03-19T10:59:01.998Z,34.34
2023-03-19T11:00:49.921Z,34.19
2023-03-19T11:02:31.275Z,34.02
2023-03-19T11:03:55.784Z,34.23
2023-03-19T11:05:19.510Z,33.84
2023-03-19T11:06:57.276Z,34.10
2023-03-19T11:08:35.783Z,33.98
2023-03-19T11:10:13.025Z,33.93
2023-03-19T11:11:44.174Z,33.71
2023-03-19T11:13:08.161Z,33.36
2023-03-19T11:14:44.471Z,33.05
2023-03-19T11:16:05.998Z,33.17
2023-03-19T11:17:47.455Z,33.72
2023-03-19T11:19:09.370Z,32.92
2023-03-19T11:20:55.801Z,32.76
2023-03-19T11:22:24.683Z,32.45
2023-03-19T11:24:07.808Z,32.35
2023-03-19T11:25:50.781Z,32.28
2023-03-19T11:27:37.016Z,31.86
2023-03-19T11:29:21.347Z,31.32
2023-03-19T11:30:58.825Z,31.58
2023-03-19T11:32:34.813Z,32.27
2023-03-19T11:34:15.498Z,32.82
2023-03-19T11:35:37.781Z,32.42
2023-03-19T11:37:22.495Z,31.36
2023-03-19T11:39:07.656Z,31.16
2023-03-19T11:40:41.299Z,30.78
2023-03-19T11:42:22.359Z,31.00
2023-03-19T11:43:51.590Z,31.15
2023-03-19T11:45:39.134Z,31.71
2023-03-19T11:47:06.834Z,32.00
2023-03-19T11:48:39.597Z,31.83
2023-03-19T11:50:20.189Z,32.28
2023-03-19T11:51:59.883Z,31.69
2023-03-19T11:53:40.785Z,30.55
2023-03-19T11:55:14.233Z,30.32
2023-03-19T11:56:36.430Z,30.87
2023-03-19T11:58:11.956Z,30.80
2023-03-19T11:59:36.398Z,30.32
2023-03-19T12:01:10.446Z,30.09
2023-03-19T12:02:44.155Z,29.83
2023-03-19T12:04:17.600Z,29.89
2023-03-19T12:05:57.967Z,29.64
2023-03-19T12:07:42.588Z,29.86
2023-03-19T12:09:15.627Z,29.71
2023-03-19T12:10:49.121Z,29.31
2023-03-19T12:12:11.135Z,28.81
2023-03-19T12:13:37.795Z,28.70
2023-03-19T12:15:04.381Z,29.25
2023-03-19T12:16:46.547Z,29.24
2023-03-19T12:18:22.536Z,29.18
2023-03-19T12:19:49.006Z,28.66
2023-03-19T12:21:24.533Z,28.47
2023-03-19T12:23:09.799Z,28.66
2023-03-19T12:24:54.804Z,29.00
2023-03-19T12:26:30.334Z,29.04
2023-03-19T12:27:52.500Z,29.26
2023-03-19T12:29:26.604Z,29.22
2023-03-19T12:30:48.557Z,28.31
2023-03-19T12:32:22.045Z,28.28
2023-03-19T12:33:58.279Z,28.16
2023-03-19T12:35:43.722Z,28.61
2023-03-19T12:37:08.147Z,28.76
2023-03-19T12:38:48.807Z,28.61
2023-03-19T12:40:17.643Z,28.49
2023-03-19T12:42:03.045Z,28.42
2023-03-19T12:43:38.926Z,28.76
2023-03-19T12:45:14.590Z,28.25
2023-03-19T12:46:44.215Z,28.46
2023-03-19T12:48:29.073Z,29.48
2023-03-19T12:50:14.354Z,30.05
2023-03-19T12:51:43.703Z,30.76
2023-03-19T12:53:28.225Z,30.95
2023-03-19T12:55:14.721Z,30.96
2023-03-19T12:56:59.897Z,31.63
2023-03-19T12:58:35.654Z,31.07
2023-03-19T13:00:20.263Z,31.24
2023-03-19T13:01:54.144Z,30.77
2023-03-19T13:03:23.710Z,30.26
2023-03-19T13:04:57.517Z,30.39
2023-03-19T13:06:33.742Z,29.89
2023-03-19T13:08:07.230Z,29.73
2023-03-19T13:09:40.824Z,29.53
2023-03-19T13:11:16.341Z,29.97
2023-03-19T13:12:42.655Z,29.95
2023-03-19T13:14:27.719Z,29.75
2023-03-19T13:16:03.708Z,30.07
2023-03-19T13:17:57.303Z,29.86
2023-03-19T13:19:38.310Z,29.79
2023-03-19T13:21:11.667Z,30.12
2023-03-19T13:22:57.948Z,30.18
2023-03-19T13:24:43.270Z,30.89
2023-03-19T13:26:16.426Z,30.67
2023-03-19T13:28:05.703Z,30.93
2023-03-19T13:29:46.923Z,31.26
2023-03-19T13:31:40.313Z,31.34
2023-03-19T13:33:13.595Z,31.95
2023-03-19T13:34:59.071Z,32.31
2023-03-19T13:36:53.816Z,32.06
2023-03-19T13:38:27.251Z,32.21
2023-03-19T13:40:12.645Z,32.72
2023-03-19T13:41:41.845Z,32.74
2023-03-19T13:43:27.415Z,32.39
2023-03-19T13:45:13.606Z,32.48
2023-03-19T13:46:49.924Z,32.81
2023-03-19T13:48:26.428Z,32.72
2023-03-19T13:50:19.934Z,33.22
2023-03-19T13:52:13.333Z,33.14
2023-03-19T13:53:56.844Z,33.05
2023-03-19T13:55:42.262Z,33.73
2023-03-19T13:57:18.659Z,33.27
2023-03-19T13:59:01.555Z,33.33
2023-03-19T14:00:35.681Z,33.64
2023-03-19T14:02:05.188Z,34.21
2023-03-19T14:03:26.878Z,33.75
2023-03-19T14:05:03.625Z,33.84
2023-03-19T14:06:39.818Z,34.36
2023-03-19T14:08:03.774Z,34.41
2023-03-19T14:09:39.937Z,35.36
2023-03-19T14:11:24.542Z,35.39
2023-03-19T14:13:09.327Z,34.41
2023-03-19T14:14:33.884Z,34.23
2023-03-19T14:16:14.682Z,33.31
2023-03-19T14:17:50.312Z,32.60
2023-03-19T14:19:44.822Z,32.76
2023-03-19T14:21:21.820Z,32.53
2023-03-19T14:23:05.790Z,32.13
2023-03-19T14:26:21.076Z,30.45
2023-03-19T14:27:54.612Z,30.24
2023-03-19T14:29:18.659Z,30.23
2023-03-19T14:31:12.852Z,31.02
2023-03-19T14:32:57.865Z,30.97
2023-03-19T14:34:28.878Z,30.95
2023-03-19T14:36:14.129Z,31.53
2023-03-19T14:37:55.886Z,31.83
2023-03-19T14:39:29.118Z,31.54
2023-03-19T14:41:05.633Z,32.05
2023-03-19T14:42:43.354Z,31.93
2023-03-19T14:44:16.742Z,32.52
2023-03-19T14:46:06.849Z,32.38
2023-03-19T14:47:42.085Z,32.37
2023-03-19T14:49:12.865Z,32.39
2023-03-19T14:52:39.712Z,32.49
2023-03-19T14:54:24.402Z,32.42
2023-03-19T14:55:56.133Z,32.66
2023-03-19T14:57:17.816Z,32.90
2023-03-19T14:59:03.704Z,33.84
2023-03-19T15:00:33.027Z,33.79
2023-03-19T15:02:04.240Z,33.82
2023-03-19T15:03:38.170Z,34.12
2023-03-19T15:05:13.602Z,33.19
2023-03-19T15:06:54.477Z,33.08
2023-03-19T15:08:34.889Z,33.14
2023-03-19T15:10:08.540Z,33.20
2023-03-19T15:11:50.390Z,34.05
2023-03-19T15:13:23.537Z,33.66
2023-03-19T15:14:45.830Z,33.74
2023-03-19T15:16:19.016Z,33.96
2023-03-19T15:18:03.126Z,33.75
2023-03-19T15:19:37.824Z,34.25
2023-03-19T15:21:22.531Z,34.29
2023-03-19T15:22:52.280Z,35.01
2023-03-19T15:24:26.964Z,35.40
2023-03-19T15:26:03.001Z,35.31
2023-03-19T15:27:39.450Z,35.51
2023-03-19T15:29:20.274Z,35.27
2023-03-19T15:31:12.447Z,34.99
2023-03-19T15:33:07.947Z,35.29
2023-03-19T15:34:32.649Z,35.72
2023-03-19T15:36:19.247Z,35.20
2023-03-19T15:37:49.020Z,35.68
2023-03-19T15:39:20.685Z,35.98
2023-03-19T15:40:54.945Z,36.24
2023-03-19T15:42:31.554Z,36.32
2023-03-19T15:44:16.884Z,36.15
2023-03-19T15:45:51.806Z,36.72
2023-03-19T15:47:21.055Z,36.32
2023-03-19T15:49:06.501Z,36.11
2023-03-19T15:50:33.778Z,36.25
2023-03-19T15:52:10.151Z,36.47
2023-03-19T15:53:55.488Z,36.71
2023-03-19T15:55:46.107Z,37.08
2023-03-19T15:57:22.027Z,37.36
2023-03-19T15:59:07.238Z,37.29
2023-03-19T16:00:53.104Z,37.41
2023-03-19T16:02:38.193Z,37.86
2023-03-19T16:04:11.700Z,38.41
2023-03-19T16:05:36.105Z,38.70
2023-03-19T16:07:11.564Z,39.28
2023-03-19T16:08:56.596Z,39.78
2023-03-19T16:10:42.098Z,39.39
2023-03-19T16:12:27.249Z,39.81
2023-03-19T16:13:51.044Z,40.22
2023-03-19T16:15:31.863Z,40.58
2023-03-19T16:17:07.687Z,40.98
2023-03-19T16:19:02.887Z,41.03
2023-03-19T16:20:49.551Z,41.53
2023-03-19T16:22:23.224Z,41.47
2023-03-19T16:23:56.758Z,41.78
2023-03-19T16:25:42.311Z,41.86
2023-03-19T16:27:04.318Z,41.92
2023-03-19T16:28:28.527Z,42.50
2023-03-19T16:30:05.184Z,42.53
2023-03-19T16:31:54.894Z,42.88
2023-03-19T16:33:28.906Z,43.13
2023-03-19T16:35:15.149Z,43.07
2023-03-19T16:36:44.560Z,43.09
2023-03-19T16:38:15.752Z,43.28
2023-03-19T16:39:49.340Z,43.57
2023-03-19T16:41:34.113Z,43.79
2023-03-19T16:43:19.206Z,44.18
2023-03-19T16:45:01.199Z,43.73
2023-03-19T16:46:34.760Z,43.95
2023-03-19T16:48:03.816Z,43.80
2023-03-19T16:49:44.619Z,44.17
2023-03-19T16:51:08.596Z,44.12
2023-03-19T16:52:42.250Z,44.70
2023-03-19T16:54:20.729Z,44.84
2023-03-19T16:55:52.136Z,45.53
2023-03-19T16:57:27.692Z,45.50
2023-03-19T16:59:04.479Z,45.41
2023-03-19T17:00:41.019Z,45.77
2023-03-19T17:02:04.926Z,45.59
2023-03-19T17:03:38.512Z,45.79
2023-03-19T17:05:12.392Z,45.79
2023-03-19T17:06:55.881Z,46.17
2023-03-19T17:08:50.903Z,46.60
2023-03-19T17:10:24.289Z,46.04
2023-03-19T17:11:46.848Z,45.60
2023-03-19T17:13:20.908Z,45.02
2023-03-19T17:15:15.866Z,45.45
2023-03-19T17:17:02.859Z,46.28
2023-03-19T17:18:44.710Z,46.73
2023-03-19T17:20:18.038Z,47.60
2023-03-19T17:22:12.864Z,47.49
2023-03-19T17:23:53.742Z,47.94
2023-03-19T17:25:30.146Z,47.80
2023-03-19T17:27:15.284Z,48.32
2023-03-19T17:28:48.864Z,48.18
2023-03-19T17:30:13.048Z,48.29
2023-03-19T17:31:35.189Z,48.99
2023-03-19T17:33:08.596Z,49.20
2023-03-19T17:34:54.037Z,49.16
2023-03-19T17:36:25.797Z,49.93
2023-03-19T17:37:59.206Z,49.84
2023-03-19T17:39:21.345Z,49.55
2023-03-19T17:40:55.335Z,49.68
2023-03-19T17:42:37.876Z,49.79
2023-03-19T17:44:03.186Z,49.82
2023-03-19T17:45:49.238Z,50.30
2023-03-19T17:47:22.304Z,50.38
2023-03-19T17:48:55.450Z,50.26
2023-03-19T17:50:28.664Z,50.69
2023-03-19T17:52:14.241Z,50.82
2023-03-19T17:53:50.960Z,51.02
2023-03-19T17:55:24.577Z,50.62
2023-03-19T17:56:58.386Z,51.05
2023-03-19T17:58:31.978Z,50.82
2023-03-19T18:00:06.460Z,51.26
2023-03-19T18:01:53.180Z,51.33
2023-03-19T18:03:28.410Z,51.01
2023-03-19T18:04:52.451Z,51.31
2023-03-19T18:06:33.839Z,51.55
2023-03-19T18:08:03.301Z,51.35
2023-03-19T18:09:25.823Z,51.29
2023-03-19T18:10:59.387Z,51.01
2023-03-19T18:12:30.501Z,51.11
2023-03-19T18:14:17.087Z,51.23
2023-03-19T18:15:41.220Z,51.27
2023-03-19T18:17:05.090Z,51.86
2023-03-19T18:18:38.921Z,51.71
2023-03-19T18:20:13.565Z,51.61
2023-03-19T18:21:38.198Z,51.48
2023-03-19T18:23:00.376Z,51.19
2023-03-19T18:24:21.686Z,51.07
2023-03-19T18:25:43.987Z,51.02
2023-03-19T18:27:08.137Z,50.56
2023-03-19T18:28:30.191Z,50.88
2023-03-19T18:30:04.704Z,51.08
2023-03-19T18:31:58.116Z,51.19
2023-03-19T18:33:31.654Z,50.93
2023-03-19T18:35:05.304Z,51.67
2023-03-19T18:36:29.712Z,51.44
2023-03-19T18:38:14.891Z,50.81
2023-03-19T18:39:48.607Z,51.67
2023-03-19T18:41:21.440Z,51.81
2023-03-19T18:43:01.192Z,51.41
2023-03-19T18:44:33.995Z,51.47
2023-03-19T18:46:16.438Z,51.69
2023-03-19T18:48:03.486Z,51.20
2023-03-19T18:49:45.948Z,51.35
2023-03-19T18:51:22.017Z,51.16
2023-03-19T18:52:58.381Z,51.42
2023-03-19T18:54:33.710Z,51.96
2023-03-19T18:56:08.732Z,52.25
2023-03-19T18:57:30.710Z,52.75
2023-03-19T18:58:55.344Z,52.55
2023-03-19T19:00:28.791Z,52.65
2023-03-19T19:02:10.629Z,52.86
2023-03-19T19:03:55.811Z,52.50
2023-03-19T19:05:17.244Z,53.08
2023-03-19T19:06:47.851Z,53.07
2023-03-19T19:08:33.161Z,52.80
2023-03-19T19:10:05.264Z,52.79
2023-03-19T19:11:38.972Z,52.94
2023-03-19T19:13:08.184Z,52.80
2023-03-19T19:14:39.556Z,53.33
2023-03-19T19:16:06.488Z,53.35
2023-03-19T19:17:29.627Z,53.50
2023-03-19T19:18:56.386Z,53.52
2023-03-19T19:20:30.158Z,53.44
2023-03-19T19:22:06.206Z,53.80
2023-03-19T19:24:00.901Z,54.11
2023-03-19T19:25:22.705Z,54.13
2023-03-19T19:26:58.400Z,54.20
2023-03-19T19:28:27.997Z,54.01
2023-03-19T19:29:54.382Z,54.04
2023-03-19T19:31:27.823Z,54.31
2023-03-19T19:32:56.766Z,54.16
2023-03-19T19:34:30.371Z,54.30
2023-03-19T19:36:11.272Z,54.76
2023-03-19T19:37:56.347Z,54.53
2023-03-19T19:39:50.900Z,54.75
2023-03-19T19:41:24.123Z,54.75
2023-03-19T19:43:04.711Z,54.74
2023-03-19T19:44:28.829Z,54.93
2023-03-19T19:46:04.785Z,55.08
2023-03-19T19:47:58.118Z,55.05
2023-03-19T19:49:31.163Z,55.22
2023-03-19T19:51:04.457Z,54.93
2023-03-19T19:52:38.338Z,55.11
2023-03-19T19:54:13.678Z,55.26
2023-03-19T19:55:56.897Z,55.08
2023-03-19T19:57:21.306Z,54.78
2023-03-19T19:58:54.862Z,54.86
2023-03-19T20:00:36.030Z,54.76
2023-03-19T20:02:17.431Z,54.65
2023-03-19T20:03:42.311Z,54.75
2023-03-19T20:05:27.557Z,54.80
2023-03-19T20:08:51.250Z,54.70
2023-03-19T20:10:27.368Z,54.76
2023-03-19T20:12:20.656Z,54.81
2023-03-19T20:13:56.774Z,54.55
2023-03-19T20:15:38.135Z,54.62
2023-03-19T20:17:16.841Z,54.64
2023-03-19T20:18:54.963Z,54.87
2023-03-19T20:20:48.127Z,54.90
2023-03-19T20:22:33.341Z,54.92
2023-03-19T20:24:15.009Z,55.00
2023-03-19T20:25:39.467Z,54.57
2023-03-19T20:27:08.535Z,54.63
2023-03-19T20:28:35.670Z,54.39
2023-03-19T20:30:03.714Z,54.28
2023-03-19T20:31:44.742Z,54.24
2023-03-19T20:33:09.227Z,54.43
2023-03-19T20:34:44.929Z,54.06
2023-03-19T20:36:20.454Z,54.25
2023-03-19T20:37:42.302Z,54.27
2023-03-19T20:39:06.866Z,54.00
2023-03-19T20:40:40.725Z,53.92
2023-03-19T20:42:13.885Z,53.73
2023-03-19T20:43:49.445Z,53.83
2023-03-19T20:45:22.890Z,54.07
2023-03-19T20:47:00.123Z,54.08
2023-03-19T20:48:23.859Z,53.70
2023-03-19T20:50:06.879Z,53.63
2023-03-19T20:51:33.635Z,53.62
2023-03-19T20:53:06.433Z,53.48
2023-03-19T20:54:30.854Z,53.74
2023-03-19T20:55:54.798Z,53.45
2023-03-19T20:57:18.859Z,53.56
2023-03-19T20:58:43.389Z,53.41
2023-03-19T21:00:16.857Z,53.27
2023-03-19T21:01:52.821Z,53.35
2023-03-19T21:03:19.213Z,53.35
2023-03-19T21:04:56.835Z,53.48
2023-03-19T21:06:20.815Z,53.46
2023-03-19T21:07:45.280Z,53.52
2023-03-19T21:09:09.118Z,53.50
2023-03-19T21:10:43.047Z,53.62
2023-03-19T21:12:23.893Z,53.49
2023-03-19T21:14:04.626Z,53.42
2023-03-19T21:15:50.175Z,53.56
2023-03-19T21:17:23.468Z,53.64